Time;durP1;ratioP1;P1;durP2;ratioP2;P2;SDS_P1;SDS_P2;PMS_P1;PMS_P2;Temp;Humidity;BMP_temperature;BMP_pressure;BME280_temperature;BME280_humidity;BME280_pressure;Samples;Min_cycle;Max_cycle;Signal;HPM_P1;HPM_P2
2023/01/02 00:00:24;;;;;;;22.48;15.70;;;11.10;99.90;;;;;;5064496;28;20072;-76
2023/01/02 00:02:50;;;;;;;23.63;17.83;;;11.10;99.90;;;;;;5085736;28;20139;-76
2023/01/02 00:05:16;;;;;;;24.88;17.75;;;11.10;99.90;;;;;;5086927;28;20036;-76
2023/01/02 00:07:42;;;;;;;25.10;18.17;;;11.10;99.90;;;;;;5068161;28;20055;-76
2023/01/02 00:10:07;;;;;;;27.42;19.15;;;11.10;99.90;;;;;;5088532;28;20148;-75
2023/01/02 00:12:33;;;;;;;25.17;18.38;;;11.10;99.90;;;;;;5088696;28;20445;-76
2023/01/02 00:14:58;;;;;;;24.67;17.75;;;11.10;99.90;;;;;;5086161;28;20035;-76
2023/01/02 00:17:24;;;;;;;24.67;16.98;;;11.10;99.90;;;;;;5087827;28;20056;-76
2023/01/02 00:19:50;;;;;;;25.45;18.00;;;11.10;99.90;;;;;;5087294;28;20070;-76
2023/01/02 00:22:15;;;;;;;24.40;18.25;;;11.10;99.90;;;;;;5087111;28;20441;-76
2023/01/02 00:24:41;;;;;;;26.45;17.48;;;11.10;99.90;;;;;;5088130;28;20133;-76
2023/01/02 00:27:07;;;;;;;25.40;18.30;;;11.10;99.90;;;;;;5086051;28;20698;-79
2023/01/02 00:29:32;;;;;;;25.45;18.38;;;11.10;99.90;;;;;;5071803;28;20036;-78
2023/01/02 00:31:58;;;;;;;25.17;18.67;;;11.10;99.90;;;;;;5085289;28;20032;-78
2023/01/02 00:34:25;;;;;;;28.08;18.42;;;11.10;99.90;;;;;;5086035;28;20161;-78
2023/01/02 00:36:50;;;;;;;25.55;18.98;;;11.10;99.90;;;;;;5099311;28;20185;-78
2023/01/02 00:39:16;;;;;;;26.70;18.73;;;11.10;99.90;;;;;;5069123;28;20574;-78
2023/01/02 00:41:42;;;;;;;26.02;18.70;;;11.20;99.90;;;;;;5084944;28;20081;-78
2023/01/02 00:44:07;;;;;;;26.73;19.25;;;11.20;99.90;;;;;;5087390;28;20047;-78
2023/01/02 00:46:33;;;;;;;24.63;18.48;;;11.20;99.90;;;;;;5088687;28;20059;-78
2023/01/02 00:48:59;;;;;;;27.17;18.95;;;11.20;99.90;;;;;;5083241;28;20373;-78
2023/01/02 00:51:24;;;;;;;26.75;19.20;;;11.20;99.90;;;;;;5085669;28;20036;-78
2023/01/02 00:53:50;;;;;;;21.05;17.15;;;11.20;99.90;;;;;;5087633;28;20128;-79
2023/01/02 00:56:15;;;;;;;28.65;17.83;;;11.20;99.90;;;;;;5089287;28;20438;-78
2023/01/02 00:58:41;;;;;;;25.13;16.00;;;11.20;99.90;;;;;;5088870;28;20437;-78
2023/01/02 01:01:07;;;;;;;19.75;14.73;;;11.30;99.90;;;;;;5066915;28;20040;-78
2023/01/02 01:03:32;;;;;;;21.77;14.40;;;11.30;99.90;;;;;;5085986;28;20059;-78
2023/01/02 01:05:58;;;;;;;20.33;13.90;;;11.40;99.90;;;;;;5084957;28;20040;-78
2023/01/02 01:08:24;;;;;;;24.90;14.23;;;11.40;99.90;;;;;;5068253;28;20051;-78
2023/01/02 01:10:50;;;;;;;19.98;12.88;;;11.40;99.90;;;;;;5088709;28;20044;-77
2023/01/02 01:13:16;;;;;;;20.33;12.73;;;11.40;99.90;;;;;;5068164;28;20044;-78
2023/01/02 01:15:42;;;;;;;20.98;13.00;;;11.50;99.90;;;;;;5085829;28;20319;-78
2023/01/02 01:18:07;;;;;;;20.40;12.10;;;11.50;99.90;;;;;;5085364;28;20033;-78
2023/01/02 01:20:37;;;;;;;19.08;12.68;;;11.50;99.90;;;;;;5068829;28;20079;-78
2023/01/02 01:23:03;;;;;;;19.92;12.75;;;11.50;99.90;;;;;;5063667;28;20036;-78
2023/01/02 01:25:29;;;;;;;17.10;11.65;;;11.50;99.90;;;;;;5090939;28;20044;-78
2023/01/02 01:27:54;;;;;;;19.73;11.77;;;11.50;99.90;;;;;;5057740;28;20546;-78
2023/01/02 01:30:20;;;;;;;17.98;11.88;;;11.50;99.90;;;;;;5085989;28;20040;-78
2023/01/02 01:32:46;;;;;;;19.83;12.35;;;11.50;99.90;;;;;;5087364;28;20048;-78
2023/01/02 01:35:11;;;;;;;20.73;12.30;;;11.50;99.90;;;;;;5087008;28;20052;-78
2023/01/02 01:37:38;;;;;;;21.55;12.48;;;11.50;99.90;;;;;;5082763;28;20046;-78
2023/01/02 01:40:05;;;;;;;21.00;11.90;;;11.50;99.90;;;;;;5087950;28;20047;-78
2023/01/02 01:42:34;;;;;;;19.52;12.18;;;11.50;99.90;;;;;;5084604;28;20047;-78
2023/01/02 01:44:59;;;;;;;17.30;11.60;;;11.50;99.90;;;;;;5068879;28;20528;-78
2023/01/02 01:47:33;;;;;;;19.13;12.02;;;11.50;99.90;;;;;;5084725;28;20054;-78
2023/01/02 01:50:14;;;;;;;19.98;11.50;;;11.50;99.90;;;;;;5085498;28;20040;-78
2023/01/02 01:52:46;;;;;;;18.40;11.60;;;11.50;99.90;;;;;;5086155;28;20138;-78
2023/01/02 01:55:20;;;;;;;19.60;11.45;;;11.50;99.90;;;;;;5086272;28;20086;-78
2023/01/02 01:57:51;;;;;;;19.70;11.63;;;11.50;99.90;;;;;;5067424;28;20487;-78
2023/01/02 02:00:17;;;;;;;18.45;11.23;;;11.50;99.90;;;;;;5068960;28;20040;-78
2023/01/02 02:02:45;;;;;;;19.80;10.63;;;11.50;99.90;;;;;;5063554;28;20096;-78
2023/01/02 02:05:14;;;;;;;19.27;10.98;;;11.50;99.90;;;;;;5067258;28;20139;-78
2023/01/02 02:07:46;;;;;;;19.60;11.10;;;11.50;99.90;;;;;;5098980;28;20071;-78
2023/01/02 02:10:12;;;;;;;18.30;10.80;;;11.60;99.90;;;;;;5086782;28;20063;-78
2023/01/02 02:12:38;;;;;;;17.17;10.13;;;11.60;99.90;;;;;;5084242;28;20662;-77
2023/01/02 02:15:05;;;;;;;19.10;10.05;;;11.60;99.90;;;;;;5065778;28;20044;-78
2023/01/02 02:17:43;;;;;;;21.38;10.98;;;11.60;99.90;;;;;;5099880;28;20151;-78
2023/01/02 02:20:37;;;;;;;15.90;9.32;;;11.60;99.90;;;;;;5064267;28;20052;-78
2023/01/02 02:23:24;;;;;;;17.55;10.63;;;11.60;99.90;;;;;;5088135;28;20076;-78
2023/01/02 02:26:04;;;;;;;16.10;9.77;;;11.60;99.90;;;;;;5061849;28;20122;-78
2023/01/02 02:28:48;;;;;;;15.48;9.75;;;11.60;99.90;;;;;;5077002;28;20543;-78
2023/01/02 02:31:46;;;;;;;18.10;10.32;;;11.60;99.90;;;;;;5085493;28;20040;-78
2023/01/02 02:34:42;;;;;;;16.23;9.68;;;11.60;99.90;;;;;;5081292;28;20036;-78
2023/01/02 02:37:17;;;;;;;18.05;9.45;;;11.60;99.90;;;;;;5087136;28;20048;-78
2023/01/02 02:39:59;;;;;;;20.92;10.50;;;11.60;99.90;;;;;;5067384;28;20040;-78
2023/01/02 02:42:39;;;;;;;18.15;9.90;;;11.70;99.90;;;;;;5083140;28;20072;-78
2023/01/02 02:45:44;;;;;;;16.15;9.73;;;11.70;99.90;;;;;;5085151;28;20051;-78
2023/01/02 02:48:15;;;;;;;20.35;9.63;;;11.70;99.90;;;;;;5079034;28;20048;-78
2023/01/02 02:50:53;;;;;;;18.10;9.55;;;11.70;99.90;;;;;;5084820;28;20047;-78
2023/01/02 02:53:32;;;;;;;17.27;9.38;;;11.70;99.90;;;;;;5066309;28;20044;-78
2023/01/02 02:56:02;;;;;;;19.10;9.48;;;11.70;99.90;;;;;;5086413;28;20041;-78
2023/01/02 02:58:29;;;;;;;17.10;9.30;;;11.70;99.90;;;;;;5086180;28;20040;-78
2023/01/02 03:01:07;;;;;;;18.58;9.35;;;11.70;99.90;;;;;;5082541;28;20051;-78
2023/01/02 03:03:33;;;;;;;15.60;8.90;;;11.70;99.90;;;;;;5082834;28;20711;-78
2023/01/02 03:06:48;;;;;;;15.05;9.15;;;11.70;99.90;;;;;;5086296;28;20051;-78
2023/01/02 03:09:38;;;;;;;19.85;9.40;;;11.80;99.90;;;;;;5084250;28;20074;-78
2023/01/02 03:12:33;;;;;;;15.32;8.27;;;11.80;99.90;;;;;;5082857;28;20133;-78
2023/01/02 03:15:16;;;;;;;15.02;8.02;;;11.80;99.90;;;;;;5084471;28;20058;-78
2023/01/02 03:18:07;;;;;;;19.67;9.20;;;11.70;99.90;;;;;;5067800;28;20090;-78
2023/01/02 03:20:39;;;;;;;17.00;8.70;;;11.80;99.90;;;;;;5085169;28;20557;-78
2023/01/02 03:23:09;;;;;;;14.73;8.63;;;11.80;99.90;;;;;;5086093;28;20111;-78
2023/01/02 03:25:36;;;;;;;16.90;8.52;;;11.80;99.90;;;;;;5065524;28;20143;-78
2023/01/02 03:28:05;;;;;;;16.35;8.80;;;11.80;99.90;;;;;;5082784;28;20507;-78
2023/01/02 03:30:33;;;;;;;13.10;8.73;;;11.80;99.90;;;;;;5087136;28;20038;-78
2023/01/02 03:33:07;;;;;;;18.25;8.75;;;11.80;99.90;;;;;;5085087;28;20052;-78
2023/01/02 03:35:42;;;;;;;19.50;9.27;;;11.80;99.90;;;;;;5083386;28;20067;-78
2023/01/02 03:38:11;;;;;;;18.73;9.32;;;11.80;99.90;;;;;;5068097;28;20561;-78
2023/01/02 03:40:43;;;;;;;16.48;8.60;;;11.90;99.90;;;;;;5086598;28;20437;-78
2023/01/02 03:43:20;;;;;;;19.38;9.15;;;11.80;99.90;;;;;;5082116;28;20045;-78
2023/01/02 03:45:55;;;;;;;17.90;8.80;;;11.80;99.90;;;;;;5087158;28;20044;-78
2023/01/02 03:48:55;;;;;;;15.93;8.75;;;11.80;99.90;;;;;;5087127;28;20427;-79
2023/01/02 03:51:21;;;;;;;15.60;8.65;;;11.80;99.90;;;;;;5086996;28;20614;-78
2023/01/02 03:53:48;;;;;;;16.42;9.60;;;11.80;99.90;;;;;;5065381;28;20131;-78
2023/01/02 03:56:19;;;;;;;16.38;9.27;;;11.90;99.90;;;;;;5081269;28;20035;-78
2023/01/02 03:58:55;;;;;;;16.67;9.85;;;11.80;99.90;;;;;;5084218;28;20048;-78
2023/01/02 04:01:48;;;;;;;20.73;9.40;;;11.80;99.90;;;;;;5081275;28;20434;-78
2023/01/02 04:04:40;;;;;;;17.05;8.73;;;11.80;99.90;;;;;;5083718;28;20040;-78
2023/01/02 04:07:12;;;;;;;17.15;9.57;;;11.80;99.90;;;;;;5085620;27;20059;-78
2023/01/02 04:09:40;;;;;;;16.35;9.40;;;11.80;99.90;;;;;;5089446;28;20548;-78
2023/01/02 04:12:13;;;;;;;17.60;9.60;;;11.80;99.90;;;;;;5069565;28;20048;-78
2023/01/02 04:14:57;;;;;;;15.43;9.68;;;11.80;99.90;;;;;;5090878;28;20036;-78
2023/01/02 04:17:25;;;;;;;17.13;9.55;;;11.90;99.90;;;;;;5089879;28;20058;-78
2023/01/02 04:20:05;;;;;;;19.98;9.73;;;11.90;99.90;;;;;;5088068;28;20047;-78
2023/01/02 04:22:40;;;;;;;16.20;9.15;;;11.90;99.90;;;;;;5069503;28;20606;-78
2023/01/02 04:25:12;;;;;;;14.32;9.38;;;11.90;99.90;;;;;;5065771;28;20106;-78
2023/01/02 04:27:49;;;;;;;17.92;10.00;;;11.90;99.90;;;;;;5087700;28;20040;-78
2023/01/02 04:30:14;;;;;;;20.48;9.95;;;11.90;99.90;;;;;;5088848;28;20047;-78
2023/01/02 04:32:42;;;;;;;15.93;9.77;;;11.90;99.90;;;;;;5071566;28;20044;-78
2023/01/02 04:35:09;;;;;;;;;;;11.90;99.90;;;;;;5083835;28;20096;-78
2023/01/02 04:37:37;;;;;;;19.88;9.38;;;11.90;99.90;;;;;;5070354;28;19941;-77
2023/01/02 04:40:13;;;;;;;18.48;9.55;;;11.90;99.90;;;;;;5071377;28;20055;-78
2023/01/02 04:42:39;;;;;;;18.87;9.63;;;11.90;99.90;;;;;;5090651;28;20052;-78
2023/01/02 04:45:05;;;;;;;18.20;9.60;;;11.90;99.90;;;;;;5071393;28;20036;-78
2023/01/02 04:47:31;;;;;;;16.45;9.73;;;11.90;99.90;;;;;;5089111;28;20047;-78
2023/01/02 04:49:56;;;;;;;19.02;8.80;;;11.90;99.90;;;;;;5085470;28;20032;-78
2023/01/02 04:52:22;;;;;;;21.45;9.10;;;12.00;99.90;;;;;;5071182;28;20841;-78
2023/01/02 04:54:47;;;;;;;15.40;8.70;;;12.00;99.90;;;;;;5090095;28;20525;-78
2023/01/02 04:57:13;;;;;;;16.42;9.13;;;12.00;99.90;;;;;;5088638;28;20409;-78
2023/01/02 04:59:39;;;;;;;14.60;9.05;;;12.00;99.90;;;;;;5088848;28;20056;-78
2023/01/02 05:02:04;;;;;;;17.33;9.35;;;12.10;99.90;;;;;;5070196;28;20395;-78
2023/01/02 05:04:30;;;;;;;20.73;9.02;;;12.00;99.90;;;;;;5069053;28;20044;-78
2023/01/02 05:06:56;;;;;;;16.30;9.07;;;12.00;99.90;;;;;;5086011;28;20052;-78
2023/01/02 05:09:21;;;;;;;17.38;9.10;;;12.00;99.90;;;;;;5068426;28;20453;-78
2023/01/02 05:11:47;;;;;;;21.92;9.07;;;12.00;99.90;;;;;;5087066;28;20602;-78
2023/01/02 05:14:12;;;;;;;17.48;8.63;;;12.00;99.90;;;;;;5073100;28;20104;-78
2023/01/02 05:16:38;;;;;;;17.77;8.98;;;12.00;99.90;;;;;;5070015;28;20156;-78
2023/01/02 05:19:04;;;;;;;13.98;7.70;;;12.10;99.90;;;;;;5087345;28;20059;-78
2023/01/02 05:24:14;;;;;;;16.98;8.25;;;12.10;99.90;;;;;;5088385;28;20040;-78
2023/01/02 05:26:39;;;;;;;15.93;8.38;;;12.00;99.90;;;;;;5061206;28;20055;-78
2023/01/02 05:29:05;;;;;;;17.98;8.32;;;12.00;99.90;;;;;;5076447;28;20947;-78
2023/01/02 05:31:31;;;;;;;19.27;8.60;;;12.10;99.90;;;;;;5084450;28;20749;-78
2023/01/02 05:33:58;;;;;;;17.52;8.80;;;12.00;99.90;;;;;;5065619;28;20032;-78
2023/01/02 05:36:24;;;;;;;14.88;7.45;;;12.10;99.90;;;;;;5087119;28;20044;-78
2023/01/02 05:38:51;;;;;;;14.65;7.88;;;12.10;99.90;;;;;;5086482;28;20123;-78
2023/01/02 05:41:18;;;;;;;17.20;8.73;;;12.00;99.90;;;;;;5083753;28;20423;-78
2023/01/02 05:43:44;;;;;;;16.60;8.27;;;12.10;99.90;;;;;;5086996;28;20062;-78
2023/01/02 05:46:18;;;;;;;16.08;8.93;;;12.10;99.90;;;;;;5082630;28;20048;-78
2023/01/02 05:48:45;;;;;;;14.90;9.35;;;12.10;99.90;;;;;;5083867;28;20036;-78
2023/01/02 05:51:13;;;;;;;17.73;9.07;;;12.10;99.90;;;;;;5084728;28;20071;-78
2023/01/02 05:53:39;;;;;;;14.18;8.85;;;12.10;99.90;;;;;;5086379;28;20051;-78
2023/01/02 05:56:10;;;;;;;14.32;9.00;;;12.10;99.90;;;;;;5086302;28;20040;-78
2023/01/02 05:58:38;;;;;;;17.73;10.23;;;12.10;99.90;;;;;;5082758;28;20052;-78
2023/01/02 06:01:05;;;;;;;15.40;9.00;;;12.10;99.90;;;;;;5085718;28;20047;-78
2023/01/02 06:03:31;;;;;;;15.15;9.10;;;12.00;99.90;;;;;;5085873;28;20049;-78
2023/01/02 06:06:05;;;;;;;18.38;8.65;;;12.10;99.90;;;;;;5085314;28;20036;-78
2023/01/02 06:08:30;;;;;;;17.25;8.52;;;12.10;99.90;;;;;;5085131;28;20038;-78
2023/01/02 06:10:56;;;;;;;14.35;8.98;;;12.10;99.90;;;;;;5082313;28;20044;-78
2023/01/02 06:13:22;;;;;;;15.20;8.23;;;12.00;99.90;;;;;;5069489;28;20036;-78
2023/01/02 06:15:47;;;;;;;16.70;8.63;;;12.10;99.90;;;;;;5085824;28;20097;-78
2023/01/02 06:18:13;;;;;;;13.68;8.40;;;12.00;99.90;;;;;;5082790;28;20047;-78
2023/01/02 06:20:39;;;;;;;14.90;8.82;;;12.10;99.90;;;;;;5067324;28;20498;-78
2023/01/02 06:23:04;;;;;;;15.02;8.57;;;12.10;99.90;;;;;;5083361;28;20407;-78
2023/01/02 06:25:31;;;;;;;16.95;9.32;;;12.10;99.90;;;;;;5081748;28;20127;-78
2023/01/02 06:27:57;;;;;;;14.20;9.13;;;12.10;99.90;;;;;;5068126;28;20243;-77
2023/01/02 06:30:22;;;;;;;15.82;9.15;;;12.10;99.90;;;;;;5083196;28;21113;-78
2023/01/02 06:32:48;;;;;;;18.17;8.73;;;12.10;99.90;;;;;;5082566;28;20048;-78
2023/01/02 06:35:14;;;;;;;14.23;7.78;;;12.10;99.90;;;;;;5086248;28;20036;-78
2023/01/02 06:37:43;;;;;;;13.88;7.57;;;12.10;99.90;;;;;;5084707;28;20590;-78
2023/01/02 06:40:10;;;;;;;11.98;7.93;;;12.10;99.90;;;;;;5085397;28;20032;-78
2023/01/02 06:42:36;;;;;;;11.57;7.95;;;12.10;99.90;;;;;;5085388;28;20066;-79
2023/01/02 06:45:02;;;;;;;11.00;7.25;;;12.10;99.90;;;;;;5060869;28;20037;-79
2023/01/02 06:47:28;;;;;;;10.93;7.18;;;12.10;99.90;;;;;;5084018;28;20084;-76
2023/01/02 06:49:53;;;;;;;12.50;7.30;;;12.10;99.90;;;;;;5081272;28;20059;-77
2023/01/02 06:52:19;;;;;;;10.75;7.22;;;12.10;99.90;;;;;;5051754;28;20381;-76
2023/01/02 06:54:45;;;;;;;8.15;6.70;;;12.10;99.90;;;;;;5043518;28;20124;-76
2023/01/02 06:57:11;;;;;;;11.77;7.50;;;12.10;99.90;;;;;;5046068;28;20132;-76
2023/01/02 06:59:37;;;;;;;13.60;7.78;;;12.10;99.90;;;;;;5037286;28;20103;-75
2023/01/02 07:02:03;;;;;;;10.48;7.10;;;12.10;99.90;;;;;;5044843;28;20044;-76
2023/01/02 07:04:30;;;;;;;11.95;7.47;;;12.10;99.90;;;;;;5033286;28;20128;-76
2023/01/02 07:06:56;;;;;;;9.93;7.63;;;12.10;99.90;;;;;;5041172;28;20071;-75
2023/01/02 07:09:23;;;;;;;15.02;8.60;;;12.10;99.90;;;;;;5043585;28;20037;-76
2023/01/02 07:11:49;;;;;;;14.50;8.25;;;12.10;99.90;;;;;;5044230;28;20131;-75
2023/01/02 07:14:15;;;;;;;14.32;7.93;;;12.10;99.90;;;;;;5038115;28;20119;-74
2023/01/02 07:16:41;;;;;;;14.10;8.50;;;12.10;99.90;;;;;;5044665;28;20059;-76
2023/01/02 07:19:07;;;;;;;15.00;8.60;;;12.10;99.90;;;;;;5043570;28;20087;-76
2023/01/02 07:21:33;;;;;;;15.75;9.27;;;12.10;99.90;;;;;;5046716;28;20045;-76
2023/01/02 07:23:59;;;;;;;15.18;8.93;;;12.10;99.90;;;;;;5043374;28;20033;-76
2023/01/02 07:26:25;;;;;;;15.25;8.77;;;12.10;99.90;;;;;;5043962;28;20440;-76
2023/01/02 07:28:51;;;;;;;13.40;8.30;;;12.10;99.90;;;;;;5041936;28;20373;-76
2023/01/02 07:31:18;;;;;;;15.90;8.80;;;12.20;99.90;;;;;;5039152;28;20155;-76
2023/01/02 07:33:44;;;;;;;;;;;12.20;99.90;;;;;;5043256;28;20128;-76
2023/01/02 07:36:17;;;;;;;10.30;7.30;;;12.10;99.90;;;;;;5072029;28;19928;-77
2023/01/02 07:38:43;;;;;;;16.65;8.20;;;12.10;99.90;;;;;;5046087;28;20098;-76
2023/01/02 07:41:16;;;;;;;14.73;8.00;;;12.10;99.90;;;;;;5047304;28;20100;-76
2023/01/02 07:43:46;;;;;;;20.73;9.70;;;12.10;99.90;;;;;;5045472;28;20045;-77
2023/01/02 07:46:14;;;;;;;12.13;6.57;;;12.10;99.90;;;;;;5047754;28;20052;-76
2023/01/02 07:48:46;;;;;;;10.20;6.45;;;12.10;99.90;;;;;;5045692;28;20425;-77
2023/01/02 07:51:13;;;;;;;4.35;2.70;;;12.10;99.90;;;;;;5053788;28;20062;-75
2023/01/02 07:53:40;;;;;;;3.72;2.60;;;12.00;99.90;;;;;;5069967;28;20136;-76
2023/01/02 07:56:07;;;;;;;5.97;2.72;;;11.90;99.90;;;;;;5069895;28;20036;-76
2023/01/02 07:58:33;;;;;;;3.45;2.13;;;11.80;99.90;;;;;;5099990;27;20079;-76
2023/01/02 08:01:05;;;;;;;2.90;1.90;;;11.80;99.90;;;;;;5087819;28;20502;-76
2023/01/02 08:03:31;;;;;;;2.05;1.83;;;11.70;99.90;;;;;;5086555;28;20535;-74
2023/01/02 08:06:09;;;;;;;2.75;2.55;;;11.60;99.90;;;;;;5069481;28;20048;-74
2023/01/02 08:08:36;;;;;;;3.20;2.75;;;11.50;99.90;;;;;;5071606;28;20128;-77
2023/01/02 08:11:07;;;;;;;5.03;3.00;;;11.40;99.90;;;;;;5063869;28;20129;-75
2023/01/02 08:13:34;;;;;;;3.58;3.15;;;11.30;99.90;;;;;;5066435;28;20044;-76
2023/01/02 08:16:08;;;;;;;4.13;3.73;;;11.30;99.90;;;;;;5089705;28;20528;-77
2023/01/02 08:18:34;;;;;;;6.07;4.07;;;11.20;99.90;;;;;;5085487;28;20044;-77
2023/01/02 08:21:00;;;;;;;4.63;4.20;;;11.10;99.90;;;;;;5065878;28;20055;-77
2023/01/02 08:23:25;;;;;;;5.70;4.30;;;11.10;99.90;;;;;;5089306;28;20044;-75
2023/01/02 08:25:51;;;;;;;5.75;4.90;;;11.00;99.90;;;;;;5070492;28;20036;-76
2023/01/02 08:28:17;;;;;;;5.40;4.72;;;11.00;99.90;;;;;;5090358;28;20130;-77
2023/01/02 08:30:42;;;;;;;5.65;5.10;;;10.90;99.90;;;;;;5074138;28;20044;-76
2023/01/02 08:33:08;;;;;;;5.00;4.45;;;10.90;99.90;;;;;;5085996;28;20045;-76
2023/01/02 08:35:34;;;;;;;5.78;5.10;;;10.90;99.90;;;;;;5086871;28;20442;-77
2023/01/02 08:37:59;;;;;;;7.32;4.85;;;10.80;99.90;;;;;;5071044;28;20491;-79
2023/01/02 08:40:25;;;;;;;5.70;5.10;;;10.80;99.90;;;;;;5090325;28;20113;-77
2023/01/02 08:42:52;;;;;;;7.07;5.13;;;10.80;99.90;;;;;;5071145;28;20067;-78
2023/01/02 08:45:17;;;;;;;6.03;5.38;;;10.70;99.90;;;;;;5071212;28;20044;-78
2023/01/02 08:47:43;;;;;;;6.75;5.47;;;10.70;99.90;;;;;;5066823;28;20089;-78
2023/01/02 08:50:08;;;;;;;6.82;5.90;;;10.70;99.90;;;;;;5085163;28;20046;-79
2023/01/02 08:52:34;;;;;;;6.78;5.88;;;10.60;99.90;;;;;;5082108;28;20411;-77
2023/01/02 08:55:02;;;;;;;6.22;5.45;;;10.60;99.90;;;;;;5068098;28;20136;-78
2023/01/02 08:57:28;;;;;;;6.72;5.55;;;10.60;99.90;;;;;;5089354;28;20048;-77
2023/01/02 08:59:54;;;;;;;6.88;5.30;;;10.50;99.90;;;;;;5089304;28;20028;-78
2023/01/02 09:02:20;;;;;;;7.57;5.40;;;10.50;99.90;;;;;;5070779;28;20048;-73
2023/01/02 09:04:45;;;;;;;6.03;4.93;;;10.50;99.90;;;;;;5071425;28;20480;-76
2023/01/02 09:07:11;;;;;;;6.82;5.03;;;10.40;99.90;;;;;;5090503;28;20479;-75
2023/01/02 09:09:37;;;;;;;6.43;4.32;;;10.40;99.90;;;;;;5081623;28;20504;-78
2023/01/02 09:12:03;;;;;;;14.25;9.88;;;10.40;99.90;;;;;;5094976;27;20551;-76
2023/01/02 09:14:28;;;;;;;6.80;4.85;;;10.30;99.90;;;;;;5075328;28;20036;-75
2023/01/02 09:16:56;;;;;;;7.57;5.13;;;10.30;99.90;;;;;;5092220;28;20039;-75
2023/01/02 09:19:23;;;;;;;6.28;3.85;;;10.20;99.90;;;;;;5089771;28;20054;-74
2023/01/02 09:21:48;;;;;;;6.75;4.30;;;10.20;99.90;;;;;;5092408;28;20047;-75
2023/01/02 09:24:14;;;;;;;5.70;4.18;;;10.20;99.90;;;;;;5070073;28;20051;-75
2023/01/02 09:26:42;;;;;;;8.27;4.38;;;10.10;99.90;;;;;;5070532;28;20040;-76
2023/01/02 09:29:10;;;;;;;6.25;4.20;;;10.10;99.90;;;;;;5081572;28;20079;-78
2023/01/02 09:31:36;;;;;;;8.27;4.18;;;10.10;99.90;;;;;;5088451;28;20059;-76
2023/01/02 09:34:02;;;;;;;6.10;4.07;;;10.10;99.90;;;;;;5086675;28;20415;-74
2023/01/02 09:36:27;;;;;;;5.30;3.83;;;10.00;99.90;;;;;;5086164;28;20040;-77
2023/01/02 09:38:55;;;;;;;7.28;4.47;;;10.00;99.90;;;;;;5081250;28;20051;-75
2023/01/02 09:41:26;;;;;;;8.27;5.28;;;10.10;99.90;;;;;;5065015;28;20040;-76
2023/01/02 09:44:06;;;;;;;7.32;5.80;;;10.00;99.90;;;;;;5082146;28;20503;-75
2023/01/02 09:46:50;;;;;;;6.78;4.50;;;10.10;99.90;;;;;;5098010;28;20496;-75
2023/01/02 09:49:23;;;;;;;5.35;3.55;;;10.10;99.90;;;;;;5070096;28;20048;-76
2023/01/02 09:51:49;;;;;;;6.28;4.00;;;10.10;99.90;;;;;;5085757;28;20052;-76
2023/01/02 09:54:23;;;;;;;5.55;4.22;;;10.10;99.90;;;;;;5086509;28;20589;-75
2023/01/02 09:56:57;;;;;;;6.70;3.42;;;10.10;99.90;;;;;;5084445;28;20069;-75
2023/01/02 09:59:39;;;;;;;5.50;3.10;;;10.10;99.90;;;;;;5069446;28;20051;-75
2023/01/02 10:02:05;;;;;;;4.55;2.90;;;10.10;99.90;;;;;;5067955;28;20040;-73
2023/01/02 10:05:00;;;;;;;6.05;3.00;;;10.10;99.90;;;;;;5087441;28;20463;-74
2023/01/02 10:07:37;;;;;;;3.35;2.00;;;10.10;99.90;;;;;;5075992;28;20063;-73
2023/01/02 10:10:26;;;;;;;4.25;2.20;;;10.00;99.90;;;;;;5087730;28;20097;-74
2023/01/02 10:13:04;;;;;;;3.65;2.42;;;9.90;99.90;;;;;;5086172;28;20048;-74
2023/01/02 10:15:30;;;;;;;5.00;2.70;;;9.90;99.90;;;;;;5069414;28;20144;-74
2023/01/02 10:18:12;;;;;;;4.25;2.55;;;9.80;99.90;;;;;;5088237;28;20040;-74
2023/01/02 10:20:41;;;;;;;4.72;2.42;;;9.80;99.90;;;;;;5086504;28;20051;-75
2023/01/02 10:23:19;;;;;;;5.15;2.80;;;9.80;99.90;;;;;;5063796;28;20054;-76
2023/01/02 10:25:57;;;;;;;3.92;2.60;;;9.80;99.90;;;;;;5065942;28;20040;-77
2023/01/02 10:28:44;;;;;;;3.70;2.50;;;9.90;99.90;;;;;;5067660;28;20051;-76
2023/01/02 10:31:19;;;;;;;;;;;9.80;99.90;;;;;;5066706;28;20101;-78
2023/01/02 10:33:55;;;;;;;3.63;2.30;;;9.80;99.90;;;;;;5102904;28;20389;-77
2023/01/02 10:36:35;;;;;;;3.43;2.40;;;9.90;99.90;;;;;;5083947;28;20083;-77
2023/01/02 10:39:23;;;;;;;5.07;2.33;;;9.80;99.90;;;;;;5065322;28;20610;-77
2023/01/02 10:41:53;;;;;;;4.03;2.42;;;9.90;99.90;;;;;;5084603;28;20036;-76
2023/01/02 10:44:34;;;;;;;4.32;2.63;;;10.00;99.90;;;;;;5054912;28;20056;-79
2023/01/02 10:47:19;;;;;;;4.93;2.25;;;9.90;99.90;;;;;;5056841;28;20495;-83
2023/01/02 10:49:45;;;;;;;4.22;2.50;;;9.90;99.90;;;;;;5082744;28;20381;-81
2023/01/02 10:52:23;;;;;;;4.83;2.53;;;9.90;99.90;;;;;;5067140;28;20261;-74
2023/01/02 10:54:55;;;;;;;4.57;2.50;;;9.90;99.90;;;;;;5089245;28;20154;-77
2023/01/02 10:57:30;;;;;;;3.10;2.42;;;9.90;99.90;;;;;;5102630;28;20044;-74
2023/01/02 10:59:59;;;;;;;5.25;2.58;;;9.90;99.90;;;;;;5068559;28;20048;-73
2023/01/02 11:02:38;;;;;;;4.35;2.55;;;9.90;99.90;;;;;;5067278;28;20130;-71
2023/01/02 11:05:05;;;;;;;5.03;2.42;;;9.90;99.90;;;;;;5076298;28;20391;-69
2023/01/02 11:07:36;;;;;;;5.20;2.78;;;9.80;99.90;;;;;;5084331;28;20062;-74
2023/01/02 11:10:03;;;;;;;4.80;2.60;;;9.90;99.90;;;;;;5069228;28;20422;-81
2023/01/02 11:12:31;;;;;;;4.45;2.67;;;9.80;99.90;;;;;;5062889;28;20055;-79
2023/01/02 11:15:13;;;;;;;4.63;2.70;;;9.90;99.90;;;;;;5070298;28;20040;-80
2023/01/02 11:17:43;;;;;;;5.40;2.67;;;9.90;99.90;;;;;;5071868;28;20056;-77
2023/01/02 11:20:30;;;;;;;3.38;2.75;;;9.90;99.90;;;;;;5088462;28;20059;-78
2023/01/02 11:22:57;;;;;;;;;;;9.90;99.90;;;;;;5070170;28;20068;-77
2023/01/02 11:25:27;;;;;;;;;;;9.90;99.90;;;;;;5103181;28;19977;-77
2023/01/02 11:27:58;;;;;;;4.00;2.53;;;9.80;99.90;;;;;;5075557;28;20589;-84
2023/01/02 11:30:29;;;;;;;4.22;2.92;;;9.90;99.90;;;;;;5082694;28;20048;-79
2023/01/02 11:33:29;;;;;;;3.65;2.80;;;9.80;99.90;;;;;;5085133;28;20881;-78
2023/01/02 11:36:12;;;;;;;5.65;3.25;;;9.80;99.90;;;;;;5085181;28;20040;-79
2023/01/02 11:38:47;;;;;;;6.25;3.42;;;9.90;99.90;;;;;;5084412;28;20048;-77
2023/01/02 11:44:27;;;;;;;5.43;3.60;;;9.80;99.90;;;;;;5086415;28;20044;-80
2023/01/02 11:46:54;;;;;;;6.18;3.88;;;9.80;99.90;;;;;;5085439;28;20386;-79
2023/01/02 11:49:23;;;;;;;6.20;3.83;;;9.90;99.90;;;;;;5089778;28;20386;-87
2023/01/02 11:52:01;;;;;;;8.13;4.05;;;9.90;99.90;;;;;;5085005;28;20127;-77
2023/01/02 11:54:45;;;;;;;6.28;4.30;;;9.90;99.90;;;;;;5063755;28;20032;-77
2023/01/02 11:57:28;;;;;;;7.05;4.47;;;9.90;99.90;;;;;;5085388;28;20043;-77
2023/01/02 11:59:57;;;;;;;9.15;4.78;;;9.80;99.90;;;;;;5088599;28;20043;-77
2023/01/02 12:02:30;;;;;;;7.55;5.40;;;9.90;99.90;;;;;;5073795;28;20049;-77
2023/01/02 12:04:55;;;;;;;8.77;6.20;;;9.90;99.90;;;;;;5067367;28;20071;-73
2023/01/02 12:07:44;;;;;;;8.73;6.38;;;9.90;99.90;;;;;;5085462;28;20067;-82
2023/01/02 12:10:38;;;;;;;9.60;7.53;;;9.90;99.90;;;;;;5082556;28;20632;-77
2023/01/02 12:13:15;;;;;;;8.55;7.65;;;9.90;99.90;;;;;;5080777;28;20040;-78
2023/01/02 12:16:06;;;;;;;10.02;7.78;;;9.90;99.90;;;;;;5066667;28;20048;-76
2023/01/02 12:18:52;;;;;;;9.57;7.88;;;9.90;99.90;;;;;;5087630;28;20564;-76
2023/01/02 12:21:23;;;;;;;8.65;7.35;;;9.90;99.90;;;;;;5087194;28;20071;-77
2023/01/02 12:24:22;;;;;;;9.68;8.68;;;9.90;99.90;;;;;;5069418;28;20474;-76
2023/01/02 12:27:00;;;;;;;8.48;6.40;;;9.90;99.90;;;;;;5078336;28;20040;-82
2023/01/02 12:29:33;;;;;;;;;;;9.90;99.90;;;;;;5083494;28;20040;-83
2023/01/02 12:32:24;;;;;;;8.05;4.50;;;9.90;99.90;;;;;;5087323;28;19994;-80
2023/01/02 12:35:29;;;;;;;5.57;3.40;;;9.90;99.90;;;;;;5086937;28;20044;-80
2023/01/02 12:37:57;;;;;;;12.60;3.63;;;9.90;99.90;;;;;;5069537;28;20055;-81
2023/01/02 12:40:34;;;;;;;5.68;3.00;;;10.00;99.90;;;;;;5085951;28;20054;-81
2023/01/02 12:43:37;;;;;;;9.02;5.22;;;9.90;99.90;;;;;;5064532;28;20054;-74
2023/01/02 12:46:31;;;;;;;11.13;8.40;;;10.00;99.90;;;;;;5070200;28;20089;-74
2023/01/02 12:49:47;;;;;;;7.70;4.68;;;10.00;99.90;;;;;;5079550;28;20090;-74
2023/01/02 12:52:34;;;;;;;7.65;3.28;;;10.00;99.90;;;;;;5022952;28;20063;-74
2023/01/02 12:55:00;;;;;;;5.45;2.63;;;10.00;99.90;;;;;;5084410;28;20052;-74
2023/01/02 12:57:42;;;;;;;6.28;2.85;;;9.90;99.90;;;;;;5085706;28;20450;-72
2023/01/02 13:00:39;;;;;;;7.35;3.03;;;10.00;99.90;;;;;;5068751;28;20449;-75
2023/01/02 13:03:14;;;;;;;7.22;2.80;;;9.90;99.90;;;;;;5089313;28;20035;-75
2023/01/02 13:05:50;;;;;;;7.47;2.65;;;9.90;99.90;;;;;;5069930;28;20052;-79
2023/01/02 13:08:21;;;;;;;7.28;2.53;;;9.90;99.90;;;;;;5084015;28;20170;-73
2023/01/02 13:10:47;;;;;;;7.43;3.35;;;9.90;99.90;;;;;;5084232;28;20093;-76